Time;durP1;ratioP1;P1;durP2;ratioP2;P2;SDS_P1;SDS_P2;PMS_P1;PMS_P2;Temp;Humidity;BMP_temperature;BMP_pressure;BME280_temperature;BME280_humidity;BME280_pressure;Samples;Min_cycle;Max_cycle;Signal;HPM_P1;HPM_P2
2021/11/12 00:12:27;;;;;;;23.75;15.40;;;3.50;92.10;;;;;;5016535;28;20108;-76
2021/11/12 00:14:55;;;;;;;22.35;15.00;;;3.40;92.00;;;;;;5015799;28;20476;-77
2021/11/12 00:17:26;;;;;;;25.25;15.50;;;3.40;92.20;;;;;;5015973;28;20022;-77
2021/11/12 00:19:52;;;;;;;23.70;13.10;;;3.40;91.90;;;;;;5015774;28;20021;-77
2021/11/12 00:22:22;;;;;;;25.90;15.93;;;3.30;91.80;;;;;;5015167;28;20072;-77
2021/11/12 00:24:53;;;;;;;26.90;16.42;;;3.30;91.90;;;;;;5015775;28;20391;-76
2021/11/12 00:27:20;;;;;;;20.75;14.43;;;3.30;91.90;;;;;;5016284;28;20072;-77
2021/11/12 00:32:46;;;;;;;20.45;12.82;;;3.30;91.50;;;;;;5015872;28;20065;-77
2021/11/12 00:40:10;;;;;;;19.15;12.77;;;3.10;91.30;;;;;;5012144;28;20102;-77
2021/11/12 00:42:42;;;;;;;24.55;15.50;;;3.10;91.20;;;;;;5006093;28;20051;-78
2021/11/12 00:45:09;;;;;;;22.33;13.48;;;3.10;91.20;;;;;;5015214;28;20391;-77
2021/11/12 00:55:20;;;;;;;18.17;12.98;;;3.00;91.00;;;;;;4973104;28;20125;-75
2021/11/12 00:57:46;;;;;;;21.98;13.85;;;3.00;91.00;;;;;;5003377;28;20423;-76
2021/11/12 01:00:13;;;;;;;18.27;12.73;;;3.00;91.00;;;;;;5012670;28;20018;-77
2021/11/12 01:02:40;;;;;;;20.67;12.77;;;3.10;91.00;;;;;;5016186;28;20022;-78
2021/11/12 01:05:08;;;;;;;17.77;11.98;;;3.10;91.00;;;;;;5015724;28;20042;-78
2021/11/12 01:07:35;;;;;;;22.15;12.23;;;3.10;90.90;;;;;;5004630;28;20069;-77
2021/11/12 01:10:01;;;;;;;19.23;12.48;;;3.00;90.90;;;;;;5014774;28;20049;-77
2021/11/12 01:12:28;;;;;;;21.75;13.68;;;3.00;90.90;;;;;;5015103;28;20480;-77
2021/11/12 01:14:55;;;;;;;16.58;12.75;;;3.10;91.00;;;;;;5014728;28;20364;-77
2021/11/12 01:17:21;;;;;;;19.70;13.05;;;3.10;90.90;;;;;;5015117;28;20041;-78
2021/11/12 01:19:47;;;;;;;21.88;13.32;;;3.10;90.80;;;;;;5014548;28;20118;-78
2021/11/12 01:22:13;;;;;;;21.63;12.38;;;3.20;90.80;;;;;;5014277;28;20022;-78
2021/11/12 01:24:39;;;;;;;20.60;12.65;;;3.20;90.80;;;;;;5014574;28;20029;-78
2021/11/12 01:27:06;;;;;;;24.00;13.23;;;3.20;90.70;;;;;;5014951;28;20383;-78
2021/11/12 01:29:32;;;;;;;21.27;14.37;;;3.30;90.60;;;;;;5014669;28;20025;-78
2021/11/12 01:32:18;;;;;;;17.98;11.48;;;3.30;90.60;;;;;;5014371;28;20026;-77
2021/11/12 01:34:44;;;;;;;19.92;11.52;;;3.20;90.60;;;;;;5014981;28;20483;-77
2021/11/12 01:37:10;;;;;;;17.38;10.85;;;3.10;90.60;;;;;;5014748;28;20382;-77
2021/11/12 01:39:36;;;;;;;19.70;12.35;;;3.00;90.60;;;;;;5014584;28;20018;-77
2021/11/12 01:42:03;;;;;;;16.52;11.80;;;2.90;90.90;;;;;;5014323;28;20026;-76
2021/11/12 01:44:33;;;;;;;22.85;11.13;;;2.90;91.00;;;;;;5014495;28;20026;-77
2021/11/12 01:49:35;;;;;;;20.50;13.25;;;2.90;91.10;;;;;;5014238;28;20030;-78
2021/11/12 01:59:51;;;;;;;21.80;13.23;;;3.10;91.00;;;;;;5014473;28;20098;-77
2021/11/12 02:02:18;;;;;;;19.60;13.60;;;3.00;91.00;;;;;;5014120;28;20554;-77
2021/11/12 02:04:44;;;;;;;25.38;13.60;;;3.10;91.10;;;;;;5013948;28;20026;-76
2021/11/12 02:07:11;;;;;;;21.23;12.80;;;3.10;90.90;;;;;;5013974;28;20064;-78
2021/11/12 02:09:37;;;;;;;;;;;3.00;90.80;;;;;;5014111;28;20101;-77
2021/11/12 02:12:28;;;;;;;20.75;11.90;;;3.00;90.90;;;;;;5013963;28;20044;-77
2021/11/12 02:14:56;;;;;;;20.00;14.30;;;3.00;90.80;;;;;;5013336;28;20410;-78
2021/11/12 02:17:24;;;;;;;18.80;11.93;;;2.90;90.80;;;;;;5015935;28;20025;-77
2021/11/12 02:20:18;;;;;;;24.55;14.23;;;2.90;90.90;;;;;;5014075;28;20034;-77
2021/11/12 02:22:46;;;;;;;19.38;12.02;;;2.80;90.90;;;;;;5013620;28;20026;-76
2021/11/12 02:25:25;;;;;;;19.60;12.52;;;2.70;91.00;;;;;;5005242;28;20046;-77
2021/11/12 02:27:56;;;;;;;20.23;12.48;;;2.60;91.20;;;;;;5010167;28;20036;-76
2021/11/12 02:30:25;;;;;;;25.52;14.07;;;2.60;91.30;;;;;;5013314;28;20040;-76
2021/11/12 02:32:58;;;;;;;25.80;12.77;;;2.50;91.40;;;;;;5013694;28;20072;-77
2021/11/12 02:35:24;;;;;;;24.30;14.15;;;2.50;91.50;;;;;;5013434;28;20048;-76
2021/11/12 02:37:50;;;;;;;21.77;12.10;;;2.50;91.60;;;;;;5013680;28;20018;-77
2021/11/12 02:40:17;;;;;;;22.42;12.55;;;2.40;91.70;;;;;;5013456;28;20033;-77
2021/11/12 02:42:42;;;;;;;22.10;12.23;;;2.30;92.10;;;;;;5012392;28;20563;-77
2021/11/12 02:45:08;;;;;;;18.85;11.93;;;2.20;92.50;;;;;;5013508;28;20105;-77
2021/11/12 02:47:34;;;;;;;20.10;14.23;;;2.20;92.80;;;;;;5013811;28;20029;-77
2021/11/12 02:50:00;;;;;;;17.70;13.52;;;2.20;93.10;;;;;;5013379;28;20014;-77
2021/11/12 02:52:26;;;;;;;26.27;13.15;;;2.10;93.20;;;;;;5013168;28;20029;-77
2021/11/12 02:54:53;;;;;;;21.65;13.02;;;2.00;93.50;;;;;;5010569;28;20041;-77
2021/11/12 02:57:22;;;;;;;19.92;13.45;;;2.00;93.80;;;;;;5013037;28;20029;-76
2021/11/12 02:59:48;;;;;;;22.65;14.68;;;2.00;94.00;;;;;;5012991;28;20045;-76
2021/11/12 03:02:15;;;;;;;24.23;16.30;;;2.00;94.50;;;;;;5012983;28;20064;-76
2021/11/12 03:04:41;;;;;;;22.15;15.15;;;2.00;94.30;;;;;;5012820;28;20619;-77
2021/11/12 03:07:07;;;;;;;25.05;16.35;;;2.00;94.40;;;;;;5013210;28;20112;-77
2021/11/12 03:09:34;;;;;;;27.23;16.20;;;2.00;94.60;;;;;;5013187;28;20025;-77
2021/11/12 03:12:03;;;;;;;28.10;16.45;;;2.00;94.90;;;;;;5032883;28;20374;-78
2021/11/12 03:14:29;;;;;;;26.10;15.73;;;2.00;95.00;;;;;;5032964;28;20040;-77
2021/11/12 03:16:55;;;;;;;25.38;15.55;;;2.00;95.10;;;;;;5017937;28;20076;-78
2021/11/12 03:19:25;;;;;;;26.70;15.52;;;1.90;95.10;;;;;;5013428;28;20026;-76
2021/11/12 03:21:54;;;;;;;26.02;16.15;;;1.70;95.50;;;;;;5013187;28;20398;-76
2021/11/12 03:24:30;;;;;;;33.15;18.85;;;1.70;95.80;;;;;;5012731;28;20041;-76
2021/11/12 03:27:10;;;;;;;26.00;17.27;;;1.70;96.00;;;;;;5012571;28;20049;-78
2021/11/12 04:00:26;;;;;;;21.50;14.38;;;1.10;98.30;;;;;;4993301;28;20494;-77
2021/11/12 04:02:51;;;;;;;23.10;16.08;;;1.10;98.50;;;;;;4984978;28;20066;-76
2021/11/12 04:41:03;;;;;;;26.10;18.25;;;1.10;99.00;;;;;;4995906;28;20036;-78
2021/11/12 05:09:37;;;;;;;36.50;19.63;;;1.00;99.60;;;;;;4995606;28;20029;-79
2021/11/12 05:14:07;;;;;;;36.38;22.63;;;1.00;99.90;;;;;;5010981;28;20033;-78
2021/11/12 05:57:11;;;;;;;35.80;20.65;;;1.20;99.90;;;;;;4994805;28;20029;-81
2021/11/12 05:59:37;;;;;;;37.50;20.83;;;1.30;99.90;;;;;;4994951;28;20030;-77
2021/11/12 06:02:06;;;;;;;33.53;21.63;;;1.30;99.90;;;;;;4994363;28;20030;-78
2021/11/12 06:04:34;;;;;;;33.70;23.33;;;1.30;99.90;;;;;;4994834;28;20022;-79
2021/11/12 06:07:00;;;;;;;35.63;21.88;;;1.40;99.90;;;;;;4992840;28;20038;-79
2021/11/12 06:09:28;;;;;;;33.65;21.13;;;1.40;99.90;;;;;;4994402;28;20058;-79
2021/11/12 06:11:53;;;;;;;;;;;1.40;99.90;;;;;;5013495;28;20050;-79
2021/11/12 06:14:21;;;;;;;29.52;20.58;;;1.40;99.90;;;;;;5013518;28;19936;-78
2021/11/12 06:16:47;;;;;;;;;;;1.20;99.90;;;;;;5014718;28;20491;-78
2021/11/12 06:19:14;;;;;;;30.67;16.63;;;1.20;99.90;;;;;;5012271;28;19905;-79
2021/11/12 06:21:40;;;;;;;30.63;21.13;;;1.20;99.90;;;;;;5013306;28;20040;-79
2021/11/12 06:24:06;;;;;;;27.70;17.33;;;1.20;99.90;;;;;;5013155;28;20040;-78
2021/11/12 06:26:37;;;;;;;28.90;19.17;;;1.30;99.90;;;;;;5013568;28;20161;-78
2021/11/12 06:29:03;;;;;;;29.23;19.70;;;1.30;99.90;;;;;;5013769;28;20022;-79
2021/11/12 06:31:29;;;;;;;29.73;19.05;;;1.40;99.90;;;;;;5013347;28;20020;-79
2021/11/12 06:33:55;;;;;;;32.47;19.23;;;1.30;99.90;;;;;;5013416;28;20525;-78
2021/11/12 06:36:23;;;;;;;28.27;18.23;;;1.30;99.90;;;;;;5013591;28;20112;-78
2021/11/12 06:38:50;;;;;;;26.33;17.10;;;1.20;99.90;;;;;;4999155;28;20026;-77
2021/11/12 06:41:26;;;;;;;24.98;16.80;;;1.20;99.90;;;;;;5013553;28;20018;-79
2021/11/12 06:43:57;;;;;;;25.80;19.33;;;1.20;99.90;;;;;;5013201;28;20080;-81
2021/11/12 06:49:22;;;;;;;27.92;17.60;;;1.30;99.90;;;;;;5013295;28;20037;-79
2021/11/12 06:51:49;;;;;;;21.17;13.40;;;1.40;99.90;;;;;;5013532;28;20049;-79
2021/11/12 06:54:20;;;;;;;25.42;16.58;;;1.40;99.90;;;;;;5013704;28;20018;-83
2021/11/12 06:56:47;;;;;;;27.13;16.27;;;1.30;99.90;;;;;;5013373;28;20064;-80
2021/11/12 06:59:14;;;;;;;23.23;15.98;;;1.30;99.90;;;;;;5012933;28;20048;-79
2021/11/12 07:01:40;;;;;;;27.35;18.17;;;1.40;99.90;;;;;;4995313;28;20394;-79
2021/11/12 07:04:06;;;;;;;25.17;14.95;;;1.50;99.90;;;;;;5011887;28;20026;-79
2021/11/12 07:06:34;;;;;;;27.50;14.77;;;1.60;99.90;;;;;;5013107;28;20041;-78
2021/11/12 07:09:00;;;;;;;25.27;17.20;;;1.60;99.90;;;;;;5013403;28;20134;-78
2021/11/12 07:11:26;;;;;;;23.73;15.77;;;1.70;99.90;;;;;;5012896;28;20093;-78
2021/11/12 07:13:51;;;;;;;21.48;15.18;;;1.70;99.90;;;;;;5012085;28;20495;-76
2021/11/12 07:16:17;;;;;;;27.95;17.77;;;1.70;99.90;;;;;;5012749;28;20034;-79
2021/11/12 07:18:44;;;;;;;24.48;14.35;;;1.70;99.90;;;;;;5012843;28;20026;-80
2021/11/12 07:21:10;;;;;;;27.10;14.77;;;1.70;99.90;;;;;;5013010;28;20061;-80
2021/11/12 07:23:36;;;;;;;22.25;14.55;;;1.50;99.90;;;;;;5014840;28;20390;-79
2021/11/12 07:26:02;;;;;;;26.92;17.00;;;1.30;99.90;;;;;;5014119;28;20116;-78
2021/11/12 07:28:28;;;;;;;23.48;15.32;;;1.30;99.90;;;;;;5004124;28;20022;-80
2021/11/12 07:30:55;;;;;;;26.00;15.82;;;1.30;99.90;;;;;;4993576;28;20547;-81
2021/11/12 07:33:22;;;;;;;24.33;14.75;;;1.20;99.90;;;;;;4993356;28;20089;-81
2021/11/12 07:38:25;;;;;;;26.20;16.98;;;1.10;99.90;;;;;;4993210;28;20030;-80
2021/11/12 07:48:55;;;;;;;25.15;17.13;;;1.10;99.90;;;;;;4992860;28;20034;-79
2021/11/12 07:51:21;;;;;;;23.48;14.98;;;1.20;99.90;;;;;;4993434;28;20407;-80
2021/11/12 07:53:47;;;;;;;25.80;15.57;;;1.30;99.90;;;;;;4995273;28;20097;-80
2021/11/12 07:56:14;;;;;;;21.50;15.73;;;1.30;99.90;;;;;;4999673;28;20031;-80
2021/11/12 07:58:40;;;;;;;24.75;15.55;;;1.40;99.90;;;;;;5003509;28;20046;-78
2021/11/12 08:01:05;;;;;;;22.40;15.90;;;1.50;99.90;;;;;;4994155;28;20491;-82
2021/11/12 08:03:34;;;;;;;21.23;14.82;;;1.60;99.90;;;;;;4993435;28;20542;-81
2021/11/12 08:06:01;;;;;;;18.48;13.38;;;1.60;99.90;;;;;;4993518;28;20035;-83
2021/11/12 08:08:30;;;;;;;17.45;12.45;;;1.60;99.90;;;;;;4993015;28;20038;-82
2021/11/12 08:11:00;;;;;;;22.23;14.73;;;1.70;99.90;;;;;;5011245;28;20118;-81
2021/11/12 08:13:47;;;;;;;21.35;15.18;;;1.70;99.90;;;;;;5015998;28;20044;-80
2021/11/12 08:18:52;;;;;;;19.65;12.35;;;1.80;99.90;;;;;;5016046;28;20112;-80
2021/11/12 08:21:23;;;;;;;20.35;14.07;;;1.80;99.90;;;;;;5016202;28;20105;-80
2021/11/12 08:26:55;;;;;;;20.95;13.13;;;2.00;99.90;;;;;;5016333;28;20447;-82
2021/11/12 08:29:36;;;;;;;18.85;13.45;;;2.10;99.90;;;;;;5016165;28;20026;-82
2021/11/12 08:37:23;;;;;;;20.95;12.68;;;2.10;99.90;;;;;;5016050;28;20022;-81
2021/11/12 08:42:19;;;;;;;18.20;13.95;;;2.20;99.90;;;;;;5015769;28;20390;-82
2021/11/12 08:44:50;;;;;;;19.67;14.02;;;2.20;99.90;;;;;;5015555;28;20026;-81
2021/11/12 08:47:21;;;;;;;17.88;13.60;;;2.30;99.90;;;;;;5015901;28;20036;-81
2021/11/12 08:49:46;;;;;;;19.88;13.52;;;2.40;99.90;;;;;;5015532;28;20045;-81
2021/11/12 08:52:16;;;;;;;19.05;13.95;;;2.40;99.90;;;;;;5015613;28;20395;-80
2021/11/12 08:54:46;;;;;;;19.65;13.65;;;2.40;99.90;;;;;;5015492;28;20117;-80
2021/11/12 08:57:14;;;;;;;17.80;12.15;;;2.40;99.90;;;;;;5015509;28;20109;-81
2021/11/12 08:59:42;;;;;;;23.00;14.32;;;2.50;99.90;;;;;;5015506;28;20026;-80
2021/11/12 09:02:11;;;;;;;19.45;13.30;;;2.50;99.90;;;;;;5015696;28;20030;-79
2021/11/12 09:04:38;;;;;;;19.50;13.82;;;2.50;99.90;;;;;;5015360;28;20022;-80
2021/11/12 09:07:04;;;;;;;18.73;13.95;;;2.50;99.90;;;;;;5015074;28;20037;-80
2021/11/12 09:09:30;;;;;;;21.23;15.10;;;2.50;99.90;;;;;;5015190;28;20029;-80
2021/11/12 09:11:57;;;;;;;21.50;14.30;;;2.50;99.90;;;;;;5015388;28;20112;-80
2021/11/12 09:14:26;;;;;;;21.00;15.32;;;2.60;99.90;;;;;;5017914;28;20557;-81
2021/11/12 09:16:52;;;;;;;17.50;13.05;;;2.60;99.90;;;;;;5016421;28;20100;-81
2021/11/12 09:19:17;;;;;;;21.20;13.90;;;2.60;99.90;;;;;;5015348;28;20026;-82
2021/11/12 09:21:46;;;;;;;21.35;14.18;;;2.60;99.90;;;;;;5015077;28;20022;-79
2021/11/12 09:24:12;;;;;;;24.48;16.83;;;2.60;99.90;;;;;;5013792;28;20057;-79
2021/11/12 09:26:40;;;;;;;17.73;12.23;;;2.60;99.90;;;;;;4997610;28;20034;-80
2021/11/12 09:29:11;;;;;;;20.88;13.93;;;2.70;99.90;;;;;;5015194;28;20022;-79
2021/11/12 09:31:38;;;;;;;17.80;13.40;;;2.70;99.90;;;;;;4997211;28;20025;-82
2021/11/12 09:34:06;;;;;;;24.48;16.50;;;2.70;99.90;;;;;;5015169;28;20036;-81
2021/11/12 09:36:32;;;;;;;33.67;15.15;;;2.70;99.90;;;;;;5016160;28;20049;-80
2021/11/12 09:38:58;;;;;;;25.17;17.13;;;2.80;99.90;;;;;;5014604;28;20025;-81
2021/11/12 09:41:24;;;;;;;21.98;14.35;;;2.80;99.90;;;;;;5014364;28;20030;-81
2021/11/12 09:43:50;;;;;;;22.35;14.32;;;2.90;99.90;;;;;;5014527;28;20025;-81
2021/11/12 09:46:18;;;;;;;19.15;13.85;;;3.00;99.90;;;;;;4996701;28;20094;-80
2021/11/12 09:48:44;;;;;;;23.90;13.88;;;3.10;99.90;;;;;;5014917;28;20387;-80
2021/11/12 09:51:12;;;;;;;20.63;14.13;;;3.20;99.90;;;;;;5014146;28;20026;-80
2021/11/12 09:53:38;;;;;;;21.90;14.60;;;3.20;99.90;;;;;;5013973;28;20054;-81
2021/11/12 09:56:07;;;;;;;20.55;13.35;;;3.30;99.90;;;;;;5014381;28;20116;-79
2021/11/12 09:58:35;;;;;;;17.60;13.93;;;3.30;99.90;;;;;;5014201;28;20093;-81
2021/11/12 10:01:01;;;;;;;20.48;13.18;;;3.30;99.90;;;;;;5016222;28;20032;-81
2021/11/12 10:03:33;;;;;;;16.17;11.73;;;3.50;99.90;;;;;;5014886;28;20387;-81
2021/11/12 10:06:23;;;;;;;19.02;12.82;;;3.40;99.90;;;;;;5015285;28;20486;-81
2021/11/12 10:08:50;;;;;;;17.48;12.57;;;3.50;99.90;;;;;;4990726;28;20023;-80
2021/11/12 10:11:34;;;;;;;17.70;13.35;;;3.50;99.90;;;;;;5009447;28;20018;-81
2021/11/12 10:14:10;;;;;;;20.63;13.85;;;3.50;99.90;;;;;;5014783;28;20484;-80
2021/11/12 10:16:36;;;;;;;16.73;12.00;;;3.50;99.90;;;;;;5013832;28;20022;-80
2021/11/12 10:19:19;;;;;;;23.15;13.95;;;3.60;99.90;;;;;;5013972;28;20510;-80
2021/11/12 10:21:47;;;;;;;18.95;11.65;;;3.70;99.90;;;;;;5013462;28;20030;-81
2021/11/12 10:24:27;;;;;;;16.38;13.63;;;3.70;99.90;;;;;;5013652;28;20391;-82
2021/11/12 10:27:00;;;;;;;20.63;15.10;;;3.70;99.90;;;;;;5013812;28;20126;-79
2021/11/12 10:29:29;;;;;;;20.40;13.02;;;3.70;99.90;;;;;;5013732;28;20018;-81
2021/11/12 10:32:08;;;;;;;16.73;12.20;;;3.80;99.90;;;;;;5014224;28;20099;-80
2021/11/12 10:34:43;;;;;;;13.70;10.10;;;3.80;99.90;;;;;;5013412;28;20422;-80
2021/11/12 10:37:11;;;;;;;16.80;11.43;;;3.80;99.90;;;;;;5013534;28;20458;-80
2021/11/12 10:39:41;;;;;;;14.50;10.55;;;3.80;99.90;;;;;;5013774;28;20026;-82
2021/11/12 10:42:11;;;;;;;16.13;11.02;;;3.80;99.90;;;;;;5013578;28;20113;-81
2021/11/12 10:44:40;;;;;;;17.02;10.85;;;3.90;99.90;;;;;;5013245;28;20018;-80
2021/11/12 10:47:07;;;;;;;20.20;12.45;;;3.90;99.90;;;;;;5013373;28;20558;-81
2021/11/12 10:49:39;;;;;;;19.67;11.57;;;4.00;99.90;;;;;;5013788;28;20033;-79
2021/11/12 10:52:10;;;;;;;14.00;9.75;;;4.00;99.90;;;;;;5013668;28;20026;-81
2021/11/12 10:54:59;;;;;;;13.60;10.27;;;4.10;99.90;;;;;;5013290;28;20375;-81
2021/11/12 10:57:30;;;;;;;11.63;8.75;;;4.20;99.90;;;;;;5013630;28;20373;-80
2021/11/12 11:00:16;;;;;;;21.08;9.73;;;4.20;99.90;;;;;;5013505;28;20034;-80
2021/11/12 11:02:48;;;;;;;13.77;8.85;;;4.20;99.90;;;;;;5013477;28;20108;-81
2021/11/12 11:05:29;;;;;;;10.80;8.23;;;4.30;99.90;;;;;;5014493;28;20439;-79
2021/11/12 11:08:07;;;;;;;10.60;7.88;;;4.30;99.90;;;;;;5013703;28;20148;-81
2021/11/12 11:10:42;;;;;;;10.40;8.32;;;4.30;99.90;;;;;;5012796;28;20034;-80
2021/11/12 11:13:22;;;;;;;10.30;7.65;;;4.50;99.90;;;;;;5013114;28;20022;-78
2021/11/12 11:15:49;;;;;;;10.55;8.48;;;4.60;99.90;;;;;;5012993;28;20028;-82
2021/11/12 11:18:24;;;;;;;7.37;6.00;;;4.60;99.90;;;;;;5012910;28;20034;-81
2021/11/12 11:20:52;;;;;;;10.60;7.55;;;4.70;99.90;;;;;;5013021;28;20072;-80
2021/11/12 11:23:20;;;;;;;13.55;9.00;;;4.80;99.90;;;;;;5012959;28;20041;-81
2021/11/12 11:26:00;;;;;;;14.10;8.55;;;4.80;99.90;;;;;;5013974;28;20044;-80
2021/11/12 11:28:27;;;;;;;10.93;7.70;;;4.80;99.90;;;;;;5012811;28;20018;-81
2021/11/12 11:30:53;;;;;;;12.80;7.75;;;4.80;99.90;;;;;;5012803;28;20022;-81
2021/11/12 11:33:20;;;;;;;12.95;8.07;;;4.80;99.90;;;;;;5012974;28;20030;-79
2021/11/12 11:35:47;;;;;;;11.73;6.72;;;4.70;99.90;;;;;;5015051;28;20018;-81
2021/11/12 11:38:18;;;;;;;10.85;7.38;;;4.80;99.90;;;;;;5014203;28;20406;-80
2021/11/12 11:40:46;;;;;;;10.73;7.38;;;4.70;99.90;;;;;;5013733;28;20018;-80
2021/11/12 11:43:14;;;;;;;12.65;8.05;;;4.70;99.90;;;;;;4995499;28;20022;-79
2021/11/12 11:45:42;;;;;;;13.57;7.97;;;4.80;99.90;;;;;;4995161;28;20099;-79
2021/11/12 11:48:08;;;;;;;9.63;7.40;;;4.70;99.90;;;;;;5016326;28;20022;-80
2021/11/12 11:50:34;;;;;;;8.07;6.00;;;4.70;99.90;;;;;;5016644;28;20101;-79
2021/11/12 11:53:23;;;;;;;10.65;7.63;;;4.70;99.90;;;;;;5016639;28;20073;-80
2021/11/12 11:55:51;;;;;;;9.85;7.30;;;4.70;99.90;;;;;;5016683;28;20037;-80
2021/11/12 11:58:42;;;;;;;13.10;8.02;;;4.60;99.90;;;;;;5016170;28;20060;-81
2021/11/12 12:01:27;;;;;;;9.60;7.75;;;4.60;99.90;;;;;;5016548;28;20499;-82
2021/11/12 12:04:12;;;;;;;9.15;6.28;;;4.60;99.90;;;;;;5016054;28;20109;-81
2021/11/12 12:07:02;;;;;;;10.10;7.13;;;4.60;99.90;;;;;;5016607;28;20034;-80
2021/11/12 12:09:53;;;;;;;7.97;6.30;;;4.60;99.90;;;;;;5016146;28;20105;-79
2021/11/12 12:12:30;;;;;;;12.70;7.18;;;4.60;99.90;;;;;;4998860;28;20026;-81
2021/11/12 12:15:23;;;;;;;8.70;6.10;;;4.60;99.90;;;;;;5016273;28;20018;-80
2021/11/12 12:18:12;;;;;;;8.77;5.53;;;4.60;99.90;;;;;;5008173;28;20041;-80
2021/11/12 12:21:10;;;;;;;8.70;5.13;;;4.60;99.90;;;;;;5017534;28;20053;-81
2021/11/12 13:25:48;;;;;;;4.53;3.17;;;4.70;99.90;;;;;;5015048;28;20056;-82
2021/11/12 13:28:26;;;;;;;4.88;3.33;;;4.70;99.90;;;;;;5014812;28;20018;-80
2021/11/12 13:31:10;;;;;;;5.60;3.17;;;4.70;99.90;;;;;;5015234;28;20075;-79
2021/11/12 13:33:44;;;;;;;3.40;3.08;;;4.70;99.90;;;;;;5015329;28;20506;-79
2021/11/12 13:36:30;;;;;;;4.38;2.70;;;4.70;99.90;;;;;;5019908;28;20037;-80
2021/11/12 13:39:26;;;;;;;4.68;3.35;;;4.70;99.90;;;;;;5015726;28;20122;-80
2021/11/12 13:41:55;;;;;;;5.43;2.97;;;4.70;99.90;;;;;;5014595;28;20022;-81
2021/11/12 13:44:25;;;;;;;2.97;2.53;;;4.70;99.90;;;;;;5014616;28;20498;-80
2021/11/12 13:46:53;;;;;;;7.55;3.72;;;4.70;99.90;;;;;;5014238;28;20038;-81
2021/11/12 13:49:38;;;;;;;2.95;2.35;;;4.70;99.90;;;;;;5014614;28;20014;-81
2021/11/12 13:52:11;;;;;;;5.20;1.77;;;4.80;99.90;;;;;;5014309;28;20104;-81
2021/11/12 13:54:48;;;;;;;4.60;2.50;;;4.80;99.90;;;;;;5013995;28;20022;-81
2021/11/12 13:57:17;;;;;;;3.65;2.40;;;4.80;99.90;;;;;;5014143;28;20026;-81
2021/11/12 14:00:08;;;;;;;3.90;1.77;;;4.80;99.90;;;;;;5013966;28;20030;-80
2021/11/12 14:02:54;;;;;;;2.85;1.80;;;4.80;99.90;;;;;;5014529;28;20383;-81
2021/11/12 14:05:22;;;;;;;3.65;1.42;;;4.80;99.90;;;;;;5014367;28;20033;-80
2021/11/12 14:07:59;;;;;;;3.58;2.25;;;4.80;99.90;;;;;;5014369;28;20540;-80
2021/11/12 14:10:30;;;;;;;;;;;4.80;99.80;;;;;;5014196;28;20571;-81
2021/11/12 14:12:58;;;;;;;1.67;1.20;;;4.80;99.80;;;;;;5014265;28;19928;-80
2021/11/12 14:15:30;;;;;;;3.22;1.52;;;4.80;99.70;;;;;;5014043;28;20387;-81
2021/11/12 14:18:35;;;;;;;3.05;1.63;;;4.80;99.50;;;;;;5014064;28;20029;-80
2021/11/12 14:29:16;;;;;;;6.85;1.52;;;4.80;98.40;;;;;;5014537;28;20076;-79
2021/11/12 14:32:10;;;;;;;1.83;1.30;;;4.80;98.10;;;;;;5017553;28;20034;-80
2021/11/12 14:38:00;;;;;;;1.00;0.90;;;4.90;97.40;;;;;;4959350;28;20045;-79
2021/11/12 14:41:39;;;;;;;2.67;1.35;;;4.90;97.40;;;;;;5013376;28;20109;-81
2021/11/12 14:46:28;;;;;;;6.22;1.67;;;4.90;97.30;;;;;;5013645;28;20034;-80
2021/11/12 14:54:33;;;;;;;2.70;1.70;;;4.90;97.40;;;;;;5012938;28;20399;-81
2021/11/12 14:57:01;;;;;;;5.85;1.80;;;4.90;97.40;;;;;;5012874;28;20041;-79
2021/11/12 14:59:28;;;;;;;7.53;2.03;;;4.90;97.40;;;;;;5012568;28;20050;-80
2021/11/12 15:01:54;;;;;;;1.98;1.25;;;4.90;97.50;;;;;;5012761;28;20022;-80
2021/11/12 15:04:20;;;;;;;3.33;1.50;;;4.80;97.50;;;;;;5013590;28;20057;-81
2021/11/12 15:06:46;;;;;;;6.30;1.95;;;4.80;97.60;;;;;;5012616;28;20483;-80
2021/11/12 15:11:42;;;;;;;2.42;1.02;;;4.80;97.80;;;;;;5013353;28;20057;-80
2021/11/12 15:14:10;;;;;;;;;;;4.70;98.00;;;;;;5013416;28;20026;-81
2021/11/12 15:16:38;;;;;;;5.68;2.13;;;4.70;98.10;;;;;;5012996;28;20350;-81
2021/11/12 15:19:12;;;;;;;3.35;1.77;;;4.60;98.10;;;;;;5012923;28;20049;-80
2021/11/12 15:27:00;;;;;;;3.25;2.17;;;4.60;98.40;;;;;;5013518;28;20555;-80
2021/11/12 15:29:37;;;;;;;3.80;2.40;;;4.60;98.50;;;;;;4999255;28;20022;-81
2021/11/12 15:32:11;;;;;;;4.88;2.10;;;4.60;98.50;;;;;;5016471;28;20069;-79
2021/11/12 15:34:45;;;;;;;5.30;1.50;;;4.60;98.50;;;;;;5012993;28;20149;-81
2021/11/12 15:37:26;;;;;;;2.90;1.05;;;4.60;98.60;;;;;;5013100;28;20529;-80
2021/11/12 15:40:01;;;;;;;2.03;1.42;;;4.60;98.60;;;;;;5013907;28;20033;-82
2021/11/12 15:45:05;;;;;;;4.18;1.65;;;4.60;98.60;;;;;;5013539;28;20073;-81
2021/11/12 15:47:33;;;;;;;3.03;1.10;;;4.60;98.60;;;;;;5012201;28;20038;-80
2021/11/12 15:50:12;;;;;;;1.73;1.42;;;4.60;98.60;;;;;;5012740;28;20088;-79
2021/11/12 15:52:50;;;;;;;3.47;1.83;;;4.60;98.60;;;;;;4995515;28;20074;-80
2021/11/12 15:56:02;;;;;;;2.75;1.75;;;4.60;98.60;;;;;;5012411;28;20157;-80
2021/11/12 15:58:30;;;;;;;1.20;0.93;;;4.70;98.70;;;;;;5009416;28;20519;-80
2021/11/12 16:01:13;;;;;;;4.05;1.90;;;4.60;98.80;;;;;;5012107;28;20045;-79
2021/11/12 16:14:13;;;;;;;7.80;2.38;;;4.70;99.20;;;;;;5012810;28;20081;-81
2021/11/12 16:19:30;;;;;;;2.60;1.60;;;4.70;99.20;;;;;;5012199;28;20033;-80
2021/11/12 16:27:24;;;;;;;4.30;1.38;;;4.50;99.70;;;;;;5012092;28;20081;-83
2021/11/12 16:29:52;;;;;;;2.88;1.98;;;4.40;99.90;;;;;;4994722;28;20030;-82
2021/11/12 16:35:18;;;;;;;2.22;1.52;;;4.40;99.90;;;;;;4994913;28;20042;-82
2021/11/12 16:37:47;;;;;;;2.60;1.65;;;4.40;99.90;;;;;;5016620;28;20085;-79
2021/11/12 16:40:34;;;;;;;1.70;1.13;;;4.30;99.90;;;;;;5017862;28;20084;-79
2021/11/12 16:43:16;;;;;;;3.78;2.05;;;4.30;99.90;;;;;;5000374;28;20454;-81
2021/11/12 16:59:15;;;;;;;3.92;1.83;;;4.20;99.90;;;;;;5015786;28;20064;-79
2021/11/12 17:02:00;;;;;;;;;;;4.20;99.90;;;;;;5015723;28;20165;-79
2021/11/12 17:04:30;;;;;;;3.15;2.00;;;4.20;99.90;;;;;;5008203;28;20371;-80
2021/11/12 17:09:52;;;;;;;2.75;2.22;;;4.20;99.90;;;;;;5015424;28;20030;-79
2021/11/12 17:18:18;;;;;;;3.05;1.70;;;4.20;99.90;;;;;;5015172;28;20095;-81
2021/11/12 17:45:43;;;;;;;2.80;2.10;;;4.50;99.90;;;;;;5013629;28;20040;-79
2021/11/12 17:47:35;;;;;;;2.33;1.63;;;4.50;99.90;;;;;;5008704;28;20042;-81
2021/11/12 18:04:18;;;;;;;2.95;1.90;;;4.60;99.90;;;;;;5014332;28;20033;-80
2021/11/12 18:06:22;;;;;;;5.80;2.35;;;4.60;99.90;;;;;;5008252;28;20403;-80
2021/11/12 21:46:52;;;;;;;2.20;1.50;;;4.70;99.90;;;;;;5025650;28;20038;-86
2021/11/12 21:49:18;;;;;;;2.85;1.30;;;4.80;99.90;;;;;;5016391;28;20033;-85
2021/11/12 21:51:45;;;;;;;1.65;1.27;;;4.80;99.90;;;;;;5015403;28;20153;-85
2021/11/12 21:54:12;;;;;;;1.60;1.33;;;4.80;99.90;;;;;;5015339;28;20480;-87
2021/11/12 21:56:38;;;;;;;1.38;1.20;;;4.80;99.80;;;;;;5022579;28;20100;-84
2021/11/12 21:59:06;;;;;;;6.35;1.35;;;4.80;99.70;;;;;;5016360;28;20052;-84
2021/11/12 22:01:33;;;;;;;3.53;1.52;;;4.80;99.70;;;;;;5000634;28;20054;-82
2021/11/12 22:03:59;;;;;;;3.30;1.33;;;4.90;99.60;;;;;;5014057;28;20033;-84
2021/11/12 22:06:25;;;;;;;2.63;1.40;;;4.90;99.60;;;;;;5013992;28;20038;-82
2021/11/12 22:08:51;;;;;;;2.38;1.17;;;4.90;99.50;;;;;;4997454;28;20033;-84
2021/11/12 22:11:17;;;;;;;1.77;1.20;;;5.00;99.40;;;;;;5009096;28;20084;-83
2021/11/12 22:13:44;;;;;;;2.67;1.58;;;4.90;99.30;;;;;;5012674;28;20415;-82
2021/11/12 22:16:15;;;;;;;2.70;1.60;;;4.90;99.30;;;;;;5014420;28;20033;-81
2021/11/12 22:18:43;;;;;;;4.03;1.55;;;4.90;99.40;;;;;;5018627;28;20089;-83
2021/11/12 22:21:09;;;;;;;1.60;1.27;;;4.90;99.50;;;;;;5014880;28;20031;-84
2021/11/12 22:23:35;;;;;;;1.75;1.30;;;4.90;99.60;;;;;;5015621;28;20030;-82
2021/11/12 22:26:02;;;;;;;1.50;0.95;;;4.90;99.20;;;;;;5033681;28;20044;-86
2021/11/12 22:28:28;;;;;;;1.15;1.05;;;4.90;99.20;;;;;;5035027;28;20025;-85
2021/11/12 22:30:54;;;;;;;2.22;1.17;;;5.00;99.00;;;;;;5036157;28;20096;-85
2021/11/12 22:33:20;;;;;;;2.38;1.35;;;5.00;99.00;;;;;;5041829;28;20108;-84
2021/11/12 22:35:47;;;;;;;3.10;1.20;;;5.00;98.90;;;;;;5004896;28;20092;-84
2021/11/12 22:38:15;;;;;;;2.40;1.50;;;4.90;98.90;;;;;;5015549;28;20407;-82
2021/11/12 22:40:43;;;;;;;2.58;1.00;;;5.00;99.10;;;;;;5016604;28;20057;-83
2021/11/12 22:43:09;;;;;;;1.80;1.60;;;5.00;98.60;;;;;;5017130;28;20022;-86
2021/11/12 22:45:36;;;;;;;2.13;1.70;;;5.00;98.50;;;;;;5034263;28;20061;-85
2021/11/12 22:48:02;;;;;;;3.03;1.55;;;5.00;98.40;;;;;;5035844;28;20171;-85
2021/11/12 22:50:28;;;;;;;3.92;1.38;;;5.00;98.50;;;;;;5035258;28;20057;-84
2021/11/12 22:52:54;;;;;;;3.20;1.50;;;5.10;98.30;;;;;;4997267;28;20054;-83
2021/11/12 22:55:21;;;;;;;4.07;1.95;;;5.10;98.20;;;;;;5016548;28;20495;-85